sensor_id;sensor_type;location;lat;lon;timestamp;P1;durP1;ratioP1;P2;durP2;ratioP2
82475;SDS011;72099;43.176;76.872;2024-01-15T00:02:36;9.98;;;1.20;;
82475;SDS011;72099;43.176;76.872;2024-01-15T00:05:37;2.45;;;1.00;;
82475;SDS011;72099;43.176;76.872;2024-01-15T00:08:38;1.45;;;0.90;;
82475;SDS011;72099;43.176;76.872;2024-01-15T00:11:39;1.30;;;1.05;;
82475;SDS011;72099;43.176;76.872;2024-01-15T00:14:40;2.00;;;1.20;;
82475;SDS011;72099;43.176;76.872;2024-01-15T00:17:41;3.22;;;1.42;;
82475;SDS011;72099;43.176;76.872;2024-01-15T00:20:42;1.67;;;1.33;;
82475;SDS011;72099;43.176;76.872;2024-01-15T00:23:44;1.85;;;1.20;;
82475;SDS011;72099;43.176;76.872;2024-01-15T00:26:45;1.50;;;0.88;;
82475;SDS011;72099;43.176;76.872;2024-01-15T00:29:46;2.22;;;1.20;;
82475;SDS011;72099;43.176;76.872;2024-01-15T00:32:47;3.20;;;1.40;;
82475;SDS011;72099;43.176;76.872;2024-01-15T00:35:47;1.27;;;0.73;;
82475;SDS011;72099;43.176;76.872;2024-01-15T00:38:48;1.58;;;1.00;;
82475;SDS011;72099;43.176;76.872;2024-01-15T00:41:49;4.07;;;1.98;;
82475;SDS011;72099;43.176;76.872;2024-01-15T00:44:50;1.90;;;1.25;;
82475;SDS011;72099;43.176;76.872;2024-01-15T00:47:51;2.72;;;1.33;;
82475;SDS011;72099;43.176;76.872;2024-01-15T00:50:52;3.05;;;1.30;;
82475;SDS011;72099;43.176;76.872;2024-01-15T00:53:54;3.42;;;1.45;;
82475;SDS011;72099;43.176;76.872;2024-01-15T00:56:55;3.50;;;1.25;;
82475;SDS011;72099;43.176;76.872;2024-01-15T00:59:56;2.35;;;1.35;;
82475;SDS011;72099;43.176;76.872;2024-01-15T01:02:57;1.83;;;1.30;;
82475;SDS011;72099;43.176;76.872;2024-01-15T01:05:57;1.98;;;1.25;;
82475;SDS011;72099;43.176;76.872;2024-01-15T01:08:58;2.25;;;1.38;;
82475;SDS011;72099;43.176;76.872;2024-01-15T01:11:59;2.45;;;1.20;;
82475;SDS011;72099;43.176;76.872;2024-01-15T01:15:00;1.90;;;1.25;;
82475;SDS011;72099;43.176;76.872;2024-01-15T01:18:01;2.30;;;1.42;;
82475;SDS011;72099;43.176;76.872;2024-01-15T01:21:02;2.40;;;1.33;;
82475;SDS011;72099;43.176;76.872;2024-01-15T01:24:03;4.53;;;1.52;;
82475;SDS011;72099;43.176;76.872;2024-01-15T01:27:04;3.80;;;1.60;;
82475;SDS011;72099;43.176;76.872;2024-01-15T01:30:05;4.60;;;1.50;;
82475;SDS011;72099;43.176;76.872;2024-01-15T01:33:06;3.17;;;1.90;;
82475;SDS011;72099;43.176;76.872;2024-01-15T01:36:10;2.78;;;1.75;;
82475;SDS011;72099;43.176;76.872;2024-01-15T01:39:11;3.22;;;1.40;;
82475;SDS011;72099;43.176;76.872;2024-01-15T01:42:12;2.85;;;1.70;;
82475;SDS011;72099;43.176;76.872;2024-01-15T01:45:13;4.28;;;2.30;;
82475;SDS011;72099;43.176;76.872;2024-01-15T01:48:13;4.97;;;2.10;;
82475;SDS011;72099;43.176;76.872;2024-01-15T01:51:14;3.95;;;2.40;;
82475;SDS011;72099;43.176;76.872;2024-01-15T01:54:15;4.78;;;2.67;;
82475;SDS011;72099;43.176;76.872;2024-01-15T02:00:18;3.97;;;2.58;;
82475;SDS011;72099;43.176;76.872;2024-01-15T02:03:19;4.55;;;2.38;;
82475;SDS011;72099;43.176;76.872;2024-01-15T02:06:21;5.05;;;2.67;;
82475;SDS011;72099;43.176;76.872;2024-01-15T02:09:23;4.80;;;2.65;;
82475;SDS011;72099;43.176;76.872;2024-01-15T02:12:23;4.18;;;2.67;;
82475;SDS011;72099;43.176;76.872;2024-01-15T02:15:24;4.97;;;2.30;;
82475;SDS011;72099;43.176;76.872;2024-01-15T02:18:25;4.03;;;2.47;;
82475;SDS011;72099;43.176;76.872;2024-01-15T02:21:26;6.60;;;3.28;;
82475;SDS011;72099;43.176;76.872;2024-01-15T02:24:28;6.05;;;2.78;;
82475;SDS011;72099;43.176;76.872;2024-01-15T02:27:29;4.72;;;2.92;;
82475;SDS011;72099;43.176;76.872;2024-01-15T02:30:30;6.38;;;3.22;;
82475;SDS011;72099;43.176;76.872;2024-01-15T02:33:32;6.68;;;3.72;;
82475;SDS011;72099;43.176;76.872;2024-01-15T02:36:33;5.82;;;3.30;;
82475;SDS011;72099;43.176;76.872;2024-01-15T02:39:33;10.60;;;5.22;;
82475;SDS011;72099;43.176;76.872;2024-01-15T02:42:34;11.00;;;4.55;;
82475;SDS011;72099;43.176;76.872;2024-01-15T02:45:35;13.13;;;5.07;;
82475;SDS011;72099;43.176;76.872;2024-01-15T02:48:36;11.10;;;5.57;;
82475;SDS011;72099;43.176;76.872;2024-01-15T02:51:37;13.68;;;5.70;;
82475;SDS011;72099;43.176;76.872;2024-01-15T02:54:38;12.77;;;5.60;;
82475;SDS011;72099;43.176;76.872;2024-01-15T02:57:39;24.80;;;10.70;;
82475;SDS011;72099;43.176;76.872;2024-01-15T03:00:40;22.85;;;9.55;;
82475;SDS011;72099;43.176;76.872;2024-01-15T03:03:40;26.27;;;11.20;;
82475;SDS011;72099;43.176;76.872;2024-01-15T03:06:41;26.90;;;11.70;;
82475;SDS011;72099;43.176;76.872;2024-01-15T03:09:42;31.35;;;11.75;;
82475;SDS011;72099;43.176;76.872;2024-01-15T03:12:43;30.42;;;10.52;;
82475;SDS011;72099;43.176;76.872;2024-01-15T03:15:44;26.65;;;10.05;;
82475;SDS011;72099;43.176;76.872;2024-01-15T03:18:50;25.70;;;11.02;;
82475;SDS011;72099;43.176;76.872;2024-01-15T03:21:51;28.17;;;12.05;;
82475;SDS011;72099;43.176;76.872;2024-01-15T03:24:52;30.52;;;13.25;;
82475;SDS011;72099;43.176;76.872;2024-01-15T03:27:53;39.17;;;11.30;;
82475;SDS011;72099;43.176;76.872;2024-01-15T03:30:54;34.22;;;10.43;;
82475;SDS011;72099;43.176;76.872;2024-01-15T03:33:55;48.13;;;12.40;;
82475;SDS011;72099;43.176;76.872;2024-01-15T03:36:56;35.60;;;10.68;;
82475;SDS011;72099;43.176;76.872;2024-01-15T03:43:18;31.90;;;12.20;;
82475;SDS011;72099;43.176;76.872;2024-01-15T03:46:19;32.28;;;13.95;;
82475;SDS011;72099;43.176;76.872;2024-01-15T03:49:20;30.83;;;13.52;;
82475;SDS011;72099;43.176;76.872;2024-01-15T03:52:20;42.22;;;14.98;;
82475;SDS011;72099;43.176;76.872;2024-01-15T03:55:21;77.53;;;13.32;;
82475;SDS011;72099;43.176;76.872;2024-01-15T03:58:22;28.05;;;11.55;;
82475;SDS011;72099;43.176;76.872;2024-01-15T04:01:23;29.48;;;12.32;;
82475;SDS011;72099;43.176;76.872;2024-01-15T04:04:24;52.92;;;9.18;;
82475;SDS011;72099;43.176;76.872;2024-01-15T04:07:25;43.20;;;8.63;;
82475;SDS011;72099;43.176;76.872;2024-01-15T04:10:26;91.30;;;9.05;;
82475;SDS011;72099;43.176;76.872;2024-01-15T04:13:27;81.85;;;8.30;;
82475;SDS011;72099;43.176;76.872;2024-01-15T04:16:28;36.47;;;9.13;;
82475;SDS011;72099;43.176;76.872;2024-01-15T04:22:34;56.55;;;10.20;;
82475;SDS011;72099;43.176;76.872;2024-01-15T04:25:35;28.92;;;10.70;;
82475;SDS011;72099;43.176;76.872;2024-01-15T04:28:36;38.35;;;12.00;;
82475;SDS011;72099;43.176;76.872;2024-01-15T04:31:37;30.05;;;11.15;;
82475;SDS011;72099;43.176;76.872;2024-01-15T04:34:38;35.13;;;11.63;;
82475;SDS011;72099;43.176;76.872;2024-01-15T04:37:39;41.47;;;12.40;;
82475;SDS011;72099;43.176;76.872;2024-01-15T04:40:40;71.80;;;11.77;;
82475;SDS011;72099;43.176;76.872;2024-01-15T04:43:41;31.73;;;10.88;;
82475;SDS011;72099;43.176;76.872;2024-01-15T04:46:42;26.33;;;9.65;;
82475;SDS011;72099;43.176;76.872;2024-01-15T04:49:44;32.58;;;9.13;;
82475;SDS011;72099;43.176;76.872;2024-01-15T04:52:44;17.50;;;8.30;;
82475;SDS011;72099;43.176;76.872;2024-01-15T04:55:45;31.40;;;7.43;;
82475;SDS011;72099;43.176;76.872;2024-01-15T04:58:46;28.00;;;7.60;;
82475;SDS011;72099;43.176;76.872;2024-01-15T05:01:48;36.97;;;6.32;;
82475;SDS011;72099;43.176;76.872;2024-01-15T05:07:49;21.52;;;5.65;;
82475;SDS011;72099;43.176;76.872;2024-01-15T05:10:50;28.20;;;6.90;;
82475;SDS011;72099;43.176;76.872;2024-01-15T05:13:51;18.52;;;7.28;;
82475;SDS011;72099;43.176;76.872;2024-01-15T05:16:52;22.00;;;5.43;;
82475;SDS011;72099;43.176;76.872;2024-01-15T05:19:55;20.58;;;5.70;;
82475;SDS011;72099;43.176;76.872;2024-01-15T05:22:56;17.90;;;5.88;;
82475;SDS011;72099;43.176;76.872;2024-01-15T05:25:57;29.73;;;6.28;;
82475;SDS011;72099;43.176;76.872;2024-01-15T05:28:59;22.45;;;6.55;;
82475;SDS011;72099;43.176;76.872;2024-01-15T05:31:59;12.63;;;4.57;;
82475;SDS011;72099;43.176;76.872;2024-01-15T05:35:00;40.70;;;6.63;;
82475;SDS011;72099;43.176;76.872;2024-01-15T05:38:01;23.65;;;8.02;;
82475;SDS011;72099;43.176;76.872;2024-01-15T05:41:03;32.03;;;8.18;;
82475;SDS011;72099;43.176;76.872;2024-01-15T05:44:05;24.08;;;9.05;;
82475;SDS011;72099;43.176;76.872;2024-01-15T05:47:06;28.20;;;6.43;;
82475;SDS011;72099;43.176;76.872;2024-01-15T05:50:07;25.17;;;7.50;;
82475;SDS011;72099;43.176;76.872;2024-01-15T05:53:08;21.10;;;7.88;;
82475;SDS011;72099;43.176;76.872;2024-01-15T05:56:09;52.05;;;7.57;;
82475;SDS011;72099;43.176;76.872;2024-01-15T05:59:11;22.00;;;7.10;;
82475;SDS011;72099;43.176;76.872;2024-01-15T06:02:12;30.30;;;8.38;;
82475;SDS011;72099;43.176;76.872;2024-01-15T06:05:13;26.38;;;8.75;;
82475;SDS011;72099;43.176;76.872;2024-01-15T06:08:14;21.38;;;9.18;;
82475;SDS011;72099;43.176;76.872;2024-01-15T06:11:14;41.80;;;8.82;;
82475;SDS011;72099;43.176;76.872;2024-01-15T06:14:15;20.65;;;7.57;;
82475;SDS011;72099;43.176;76.872;2024-01-15T06:17:16;25.13;;;7.97;;
82475;SDS011;72099;43.176;76.872;2024-01-15T06:20:17;58.33;;;8.02;;
82475;SDS011;72099;43.176;76.872;2024-01-15T06:23:18;19.42;;;6.85;;
82475;SDS011;72099;43.176;76.872;2024-01-15T06:26:19;25.10;;;8.57;;
82475;SDS011;72099;43.176;76.872;2024-01-15T06:29:20;28.48;;;8.95;;
82475;SDS011;72099;43.176;76.872;2024-01-15T06:32:20;36.10;;;7.38;;
82475;SDS011;72099;43.176;76.872;2024-01-15T06:35:21;35.00;;;7.68;;
82475;SDS011;72099;43.176;76.872;2024-01-15T06:38:22;109.63;;;11.18;;
82475;SDS011;72099;43.176;76.872;2024-01-15T06:41:25;22.38;;;6.65;;
82475;SDS011;72099;43.176;76.872;2024-01-15T06:44:26;56.22;;;8.80;;
82475;SDS011;72099;43.176;76.872;2024-01-15T06:47:26;74.22;;;8.27;;
82475;SDS011;72099;43.176;76.872;2024-01-15T06:50:27;34.03;;;7.57;;
82475;SDS011;72099;43.176;76.872;2024-01-15T06:53:28;65.88;;;8.52;;
82475;SDS011;72099;43.176;76.872;2024-01-15T06:56:29;90.70;;;11.68;;
82475;SDS011;72099;43.176;76.872;2024-01-15T06:59:31;75.40;;;8.48;;
82475;SDS011;72099;43.176;76.872;2024-01-15T07:02:32;25.65;;;6.82;;
82475;SDS011;72099;43.176;76.872;2024-01-15T07:05:33;47.45;;;8.85;;
82475;SDS011;72099;43.176;76.872;2024-01-15T07:08:34;56.42;;;8.98;;
82475;SDS011;72099;43.176;76.872;2024-01-15T07:11:34;37.53;;;8.18;;
82475;SDS011;72099;43.176;76.872;2024-01-15T07:14:35;51.88;;;8.48;;
82475;SDS011;72099;43.176;76.872;2024-01-15T07:17:36;123.75;;;11.52;;
82475;SDS011;72099;43.176;76.872;2024-01-15T07:20:40;65.78;;;9.52;;
82475;SDS011;72099;43.176;76.872;2024-01-15T07:23:41;53.53;;;8.27;;
82475;SDS011;72099;43.176;76.872;2024-01-15T07:26:42;33.42;;;7.55;;
82475;SDS011;72099;43.176;76.872;2024-01-15T07:29:43;53.95;;;7.85;;
82475;SDS011;72099;43.176;76.872;2024-01-15T07:32:44;29.10;;;10.00;;
82475;SDS011;72099;43.176;76.872;2024-01-15T07:35:45;36.78;;;7.03;;
82475;SDS011;72099;43.176;76.872;2024-01-15T07:38:46;32.38;;;10.18;;
82475;SDS011;72099;43.176;76.872;2024-01-15T07:41:47;33.60;;;9.48;;
82475;SDS011;72099;43.176;76.872;2024-01-15T07:44:48;20.58;;;10.25;;
82475;SDS011;72099;43.176;76.872;2024-01-15T07:47:51;60.03;;;11.85;;
82475;SDS011;72099;43.176;76.872;2024-01-15T07:50:52;38.33;;;10.10;;
82475;SDS011;72099;43.176;76.872;2024-01-15T07:53:53;32.22;;;8.63;;
82475;SDS011;72099;43.176;76.872;2024-01-15T07:57:02;70.10;;;9.18;;
82475;SDS011;72099;43.176;76.872;2024-01-15T08:04:00;30.92;;;11.35;;
82475;SDS011;72099;43.176;76.872;2024-01-15T08:07:01;77.40;;;12.00;;
82475;SDS011;72099;43.176;76.872;2024-01-15T08:13:03;22.15;;;10.23;;
82475;SDS011;72099;43.176;76.872;2024-01-15T08:16:04;26.13;;;9.63;;
82475;SDS011;72099;43.176;76.872;2024-01-15T08:19:05;44.33;;;8.93;;
82475;SDS011;72099;43.176;76.872;2024-01-15T08:22:06;29.30;;;9.52;;
82475;SDS011;72099;43.176;76.872;2024-01-15T08:25:08;69.97;;;11.35;;
82475;SDS011;72099;43.176;76.872;2024-01-15T08:28:09;33.35;;;12.18;;
82475;SDS011;72099;43.176;76.872;2024-01-15T08:31:10;21.30;;;10.57;;
82475;SDS011;72099;43.176;76.872;2024-01-15T08:34:11;27.05;;;9.95;;
82475;SDS011;72099;43.176;76.872;2024-01-15T08:37:12;50.35;;;9.38;;
82475;SDS011;72099;43.176;76.872;2024-01-15T08:40:13;34.85;;;9.73;;
82475;SDS011;72099;43.176;76.872;2024-01-15T08:43:14;36.15;;;7.57;;
82475;SDS011;72099;43.176;76.872;2024-01-15T08:46:15;22.73;;;10.35;;
82475;SDS011;72099;43.176;76.872;2024-01-15T08:49:15;14.55;;;7.30;;
82475;SDS011;72099;43.176;76.872;2024-01-15T08:52:16;28.35;;;10.10;;
82475;SDS011;72099;43.176;76.872;2024-01-15T08:55:17;18.02;;;8.57;;
82475;SDS011;72099;43.176;76.872;2024-01-15T08:58:18;26.05;;;9.73;;
82475;SDS011;72099;43.176;76.872;2024-01-15T09:01:19;18.48;;;8.20;;
82475;SDS011;72099;43.176;76.872;2024-01-15T09:04:20;21.05;;;9.45;;
82475;SDS011;72099;43.176;76.872;2024-01-15T09:07:21;23.50;;;7.57;;
82475;SDS011;72099;43.176;76.872;2024-01-15T09:10:22;15.75;;;8.13;;
82475;SDS011;72099;43.176;76.872;2024-01-15T09:13:24;18.05;;;7.97;;
82475;SDS011;72099;43.176;76.872;2024-01-15T09:16:25;29.25;;;9.50;;
82475;SDS011;72099;43.176;76.872;2024-01-15T09:19:26;21.77;;;8.02;;
82475;SDS011;72099;43.176;76.872;2024-01-15T09:22:27;19.63;;;6.60;;
82475;SDS011;72099;43.176;76.872;2024-01-15T09:25:28;22.00;;;8.68;;
82475;SDS011;72099;43.176;76.872;2024-01-15T09:28:29;19.60;;;8.63;;
82475;SDS011;72099;43.176;76.872;2024-01-15T09:31:30;18.95;;;9.48;;
82475;SDS011;72099;43.176;76.872;2024-01-15T09:34:31;15.55;;;7.53;;
82475;SDS011;72099;43.176;76.872;2024-01-15T09:37:32;18.27;;;8.82;;
82475;SDS011;72099;43.176;76.872;2024-01-15T09:40:33;18.52;;;8.27;;
82475;SDS011;72099;43.176;76.872;2024-01-15T09:43:34;31.13;;;9.43;;
82475;SDS011;72099;43.176;76.872;2024-01-15T09:46:37;19.75;;;8.75;;
82475;SDS011;72099;43.176;76.872;2024-01-15T09:49:40;18.83;;;9.40;;
82475;SDS011;72099;43.176;76.872;2024-01-15T09:52:41;17.25;;;8.05;;
82475;SDS011;72099;43.176;76.872;2024-01-15T09:55:43;14.93;;;8.02;;
82475;SDS011;72099;43.176;76.872;2024-01-15T09:58:44;22.20;;;9.65;;
82475;SDS011;72099;43.176;76.872;2024-01-15T10:01:45;18.20;;;8.25;;
82475;SDS011;72099;43.176;76.872;2024-01-15T10:04:48;18.60;;;7.85;;
82475;SDS011;72099;43.176;76.872;2024-01-15T10:07:49;16.38;;;8.70;;
82475;SDS011;72099;43.176;76.872;2024-01-15T10:10:51;14.60;;;6.43;;
82475;SDS011;72099;43.176;76.872;2024-01-15T10:13:52;22.90;;;10.20;;
82475;SDS011;72099;43.176;76.872;2024-01-15T10:16:55;21.40;;;9.07;;
82475;SDS011;72099;43.176;76.872;2024-01-15T10:23:46;20.75;;;7.85;;
82475;SDS011;72099;43.176;76.872;2024-01-15T10:26:47;24.48;;;10.18;;
82475;SDS011;72099;43.176;76.872;2024-01-15T10:33:42;21.52;;;6.90;;
82475;SDS011;72099;43.176;76.872;2024-01-15T10:36:45;24.00;;;7.07;;
82475;SDS011;72099;43.176;76.872;2024-01-15T10:39:48;17.15;;;8.43;;
82475;SDS011;72099;43.176;76.872;2024-01-15T10:42:48;27.40;;;8.80;;
82475;SDS011;72099;43.176;76.872;2024-01-15T10:45:50;20.42;;;8.88;;
82475;SDS011;72099;43.176;76.872;2024-01-15T10:48:51;12.82;;;7.68;;
82475;SDS011;72099;43.176;76.872;2024-01-15T10:51:53;26.63;;;7.72;;
82475;SDS011;72099;43.176;76.872;2024-01-15T10:54:54;20.42;;;8.43;;
82475;SDS011;72099;43.176;76.872;2024-01-15T10:57:56;17.45;;;7.57;;
82475;SDS011;72099;43.176;76.872;2024-01-15T11:00:58;15.23;;;7.03;;
82475;SDS011;72099;43.176;76.872;2024-01-15T11:03:58;18.27;;;8.05;;
82475;SDS011;72099;43.176;76.872;2024-01-15T11:07:00;20.15;;;8.27;;
82475;SDS011;72099;43.176;76.872;2024-01-15T11:10:03;18.15;;;8.90;;
82475;SDS011;72099;43.176;76.872;2024-01-15T11:13:04;26.42;;;10.55;;
82475;SDS011;72099;43.176;76.872;2024-01-15T11:16:06;19.08;;;9.15;;
82475;SDS011;72099;43.176;76.872;2024-01-15T11:19:12;19.30;;;8.73;;
82475;SDS011;72099;43.176;76.872;2024-01-15T11:25:35;26.83;;;12.23;;
82475;SDS011;72099;43.176;76.872;2024-01-15T11:28:47;21.05;;;8.90;;
82475;SDS011;72099;43.176;76.872;2024-01-15T11:37:58;24.77;;;12.18;;
82475;SDS011;72099;43.176;76.872;2024-01-15T11:40:59;30.75;;;11.40;;
82475;SDS011;72099;43.176;76.872;2024-01-15T11:44:01;21.95;;;9.05;;
82475;SDS011;72099;43.176;76.872;2024-01-15T11:47:03;21.95;;;8.63;;
82475;SDS011;72099;43.176;76.872;2024-01-15T11:53:40;29.52;;;12.52;;
82475;SDS011;72099;43.176;76.872;2024-01-15T11:56:43;21.60;;;8.45;;
82475;SDS011;72099;43.176;76.872;2024-01-15T11:59:44;20.65;;;9.75;;
82475;SDS011;72099;43.176;76.872;2024-01-15T12:02:46;26.10;;;9.55;;
82475;SDS011;72099;43.176;76.872;2024-01-15T12:05:48;25.50;;;10.07;;
82475;SDS011;72099;43.176;76.872;2024-01-15T12:16:01;28.55;;;11.05;;
82475;SDS011;72099;43.176;76.872;2024-01-15T12:19:04;34.78;;;14.80;;
82475;SDS011;72099;43.176;76.872;2024-01-15T12:25:07;21.83;;;10.52;;
82475;SDS011;72099;43.176;76.872;2024-01-15T12:31:34;39.15;;;16.35;;
82475;SDS011;72099;43.176;76.872;2024-01-15T12:34:35;26.40;;;11.65;;
82475;SDS011;72099;43.176;76.872;2024-01-15T12:37:41;23.98;;;10.77;;
82475;SDS011;72099;43.176;76.872;2024-01-15T12:40:43;28.85;;;12.30;;
82475;SDS011;72099;43.176;76.872;2024-01-15T12:43:46;23.27;;;10.38;;
82475;SDS011;72099;43.176;76.872;2024-01-15T12:46:47;20.50;;;9.73;;
82475;SDS011;72099;43.176;76.872;2024-01-15T12:49:48;22.85;;;10.15;;
82475;SDS011;72099;43.176;76.872;2024-01-15T12:52:55;24.48;;;11.18;;
82475;SDS011;72099;43.176;76.872;2024-01-15T12:55:56;22.63;;;10.13;;
82475;SDS011;72099;43.176;76.872;2024-01-15T12:58:57;20.63;;;9.95;;
82475;SDS011;72099;43.176;76.872;2024-01-15T13:01:58;29.83;;;12.23;;
82475;SDS011;72099;43.176;76.872;2024-01-15T13:04:58;24.35;;;10.07;;
82475;SDS011;72099;43.176;76.872;2024-01-15T13:07:59;20.25;;;9.30;;
82475;SDS011;72099;43.176;76.872;2024-01-15T13:11:00;21.30;;;10.52;;
82475;SDS011;72099;43.176;76.872;2024-01-15T13:14:01;25.05;;;11.02;;
82475;SDS011;72099;43.176;76.872;2024-01-15T13:17:02;24.25;;;11.05;;
82475;SDS011;72099;43.176;76.872;2024-01-15T13:20:04;24.33;;;10.82;;
82475;SDS011;72099;43.176;76.872;2024-01-15T13:23:05;20.88;;;10.20;;
82475;SDS011;72099;43.176;76.872;2024-01-15T13:26:06;21.40;;;9.75;;
82475;SDS011;72099;43.176;76.872;2024-01-15T13:32:35;22.90;;;10.10;;
82475;SDS011;72099;43.176;76.872;2024-01-15T13:35:36;21.23;;;10.07;;
82475;SDS011;72099;43.176;76.872;2024-01-15T13:38:37;22.75;;;9.88;;
82475;SDS011;72099;43.176;76.872;2024-01-15T13:41:38;23.17;;;10.18;;
82475;SDS011;72099;43.176;76.872;2024-01-15T13:44:39;26.48;;;10.93;;
82475;SDS011;72099;43.176;76.872;2024-01-15T13:47:40;27.27;;;11.98;;
82475;SDS011;72099;43.176;76.872;2024-01-15T13:50:43;27.80;;;12.27;;
82475;SDS011;72099;43.176;76.872;2024-01-15T13:53:44;30.40;;;12.57;;
82475;SDS011;72099;43.176;76.872;2024-01-15T13:56:45;29.83;;;11.70;;
82475;SDS011;72099;43.176;76.872;2024-01-15T14:02:49;22.55;;;10.40;;
82475;SDS011;72099;43.176;76.872;2024-01-15T14:05:50;23.27;;;10.35;;
82475;SDS011;72099;43.176;76.872;2024-01-15T14:08:51;24.33;;;11.88;;
82475;SDS011;72099;43.176;76.872;2024-01-15T14:11:52;22.30;;;9.70;;
82475;SDS011;72099;43.176;76.872;2024-01-15T14:14:53;24.65;;;10.48;;
82475;SDS011;72099;43.176;76.872;2024-01-15T14:17:54;24.05;;;10.30;;
82475;SDS011;72099;43.176;76.872;2024-01-15T14:20:55;26.13;;;10.52;;
82475;SDS011;72099;43.176;76.872;2024-01-15T14:23:56;22.65;;;10.75;;
82475;SDS011;72099;43.176;76.872;2024-01-15T14:26:57;23.80;;;12.32;;
82475;SDS011;72099;43.176;76.872;2024-01-15T14:33:43;25.45;;;10.95;;
82475;SDS011;72099;43.176;76.872;2024-01-15T14:36:44;21.80;;;10.43;;
82475;SDS011;72099;43.176;76.872;2024-01-15T14:39:46;100.18;;;38.05;;
82475;SDS011;72099;43.176;76.872;2024-01-15T14:42:47;45.47;;;18.10;;
82475;SDS011;72099;43.176;76.872;2024-01-15T14:45:47;42.83;;;17.63;;
82475;SDS011;72099;43.176;76.872;2024-01-15T14:48:48;41.70;;;17.52;;
82475;SDS011;72099;43.176;76.872;2024-01-15T14:51:50;42.60;;;18.05;;
82475;SDS011;72099;43.176;76.872;2024-01-15T14:54:51;40.45;;;18.58;;
82475;SDS011;72099;43.176;76.872;2024-01-15T14:57:54;45.75;;;19.63;;
82475;SDS011;72099;43.176;76.872;2024-01-15T15:00:55;42.53;;;18.90;;
82475;SDS011;72099;43.176;76.872;2024-01-15T15:03:55;38.45;;;17.92;;
82475;SDS011;72099;43.176;76.872;2024-01-15T15:06:56;38.45;;;16.25;;
82475;SDS011;72099;43.176;76.872;2024-01-15T15:09:57;36.33;;;17.85;;
82475;SDS011;72099;43.176;76.872;2024-01-15T15:12:59;46.85;;;18.38;;
82475;SDS011;72099;43.176;76.872;2024-01-15T15:16:00;40.13;;;17.02;;
82475;SDS011;72099;43.176;76.872;2024-01-15T15:19:01;44.20;;;18.30;;
82475;SDS011;72099;43.176;76.872;2024-01-15T15:22:01;43.97;;;18.40;;
82475;SDS011;72099;43.176;76.872;2024-01-15T15:25:02;41.88;;;17.60;;
82475;SDS011;72099;43.176;76.872;2024-01-15T15:28:03;39.35;;;17.15;;
82475;SDS011;72099;43.176;76.872;2024-01-15T15:31:08;44.17;;;17.58;;
82475;SDS011;72099;43.176;76.872;2024-01-15T15:34:11;45.47;;;18.85;;
82475;SDS011;72099;43.176;76.872;2024-01-15T15:37:12;35.95;;;15.38;;
82475;SDS011;72099;43.176;76.872;2024-01-15T15:40:16;36.17;;;15.57;;
82475;SDS011;72099;43.176;76.872;2024-01-15T15:43:17;36.67;;;15.07;;
82475;SDS011;72099;43.176;76.872;2024-01-15T15:46:18;42.17;;;17.45;;
82475;SDS011;72099;43.176;76.872;2024-01-15T15:49:19;34.33;;;16.48;;
82475;SDS011;72099;43.176;76.872;2024-01-15T15:52:21;35.35;;;14.43;;
82475;SDS011;72099;43.176;76.872;2024-01-15T15:55:21;41.97;;;16.55;;
82475;SDS011;72099;43.176;76.872;2024-01-15T16:01:24;43.13;;;20.17;;
82475;SDS011;72099;43.176;76.872;2024-01-15T16:04:25;37.10;;;16.40;;
82475;SDS011;72099;43.176;76.872;2024-01-15T16:07:27;42.75;;;17.60;;
82475;SDS011;72099;43.176;76.872;2024-01-15T16:10:29;40.28;;;17.77;;
82475;SDS011;72099;43.176;76.872;2024-01-15T16:13:29;41.28;;;17.67;;
82475;SDS011;72099;43.176;76.872;2024-01-15T16:16:31;44.33;;;18.65;;
82475;SDS011;72099;43.176;76.872;2024-01-15T16:19:32;47.85;;;19.45;;
82475;SDS011;72099;43.176;76.872;2024-01-15T16:22:33;36.33;;;16.25;;
82475;SDS011;72099;43.176;76.872;2024-01-15T16:25:34;41.38;;;16.30;;
82475;SDS011;72099;43.176;76.872;2024-01-15T16:28:38;34.50;;;15.77;;
82475;SDS011;72099;43.176;76.872;2024-01-15T16:31:38;39.58;;;16.58;;
82475;SDS011;72099;43.176;76.872;2024-01-15T16:34:39;42.53;;;16.60;;
82475;SDS011;72099;43.176;76.872;2024-01-15T16:37:40;34.95;;;15.55;;
82475;SDS011;72099;43.176;76.872;2024-01-15T16:40:44;36.35;;;15.10;;
82475;SDS011;72099;43.176;76.872;2024-01-15T16:43:48;33.97;;;14.02;;
82475;SDS011;72099;43.176;76.872;2024-01-15T16:46:52;33.85;;;13.82;;
82475;SDS011;72099;43.176;76.872;2024-01-15T16:49:53;29.67;;;13.93;;
82475;SDS011;72099;43.176;76.872;2024-01-15T16:52:54;31.65;;;16.08;;
82475;SDS011;72099;43.176;76.872;2024-01-15T16:55:54;32.20;;;13.70;;
82475;SDS011;72099;43.176;76.872;2024-01-15T16:58:55;29.85;;;14.05;;
82475;SDS011;72099;43.176;76.872;2024-01-15T17:01:56;25.55;;;12.40;;
82475;SDS011;72099;43.176;76.872;2024-01-15T17:04:57;28.23;;;12.65;;
82475;SDS011;72099;43.176;76.872;2024-01-15T17:07:58;18.33;;;9.43;;
82475;SDS011;72099;43.176;76.872;2024-01-15T17:10:59;19.15;;;10.65;;
82475;SDS011;72099;43.176;76.872;2024-01-15T17:14:01;22.20;;;10.88;;
82475;SDS011;72099;43.176;76.872;2024-01-15T17:17:03;16.25;;;7.85;;
82475;SDS011;72099;43.176;76.872;2024-01-15T17:20:04;19.75;;;9.15;;
82475;SDS011;72099;43.176;76.872;2024-01-15T17:23:06;14.95;;;7.32;;
82475;SDS011;72099;43.176;76.872;2024-01-15T17:26:07;17.92;;;9.10;;
82475;SDS011;72099;43.176;76.872;2024-01-15T17:29:07;18.83;;;8.98;;
82475;SDS011;72099;43.176;76.872;2024-01-15T17:32:08;18.77;;;8.75;;
82475;SDS011;72099;43.176;76.872;2024-01-15T17:35:09;19.27;;;9.55;;
82475;SDS011;72099;43.176;76.872;2024-01-15T17:38:10;17.98;;;7.65;;
82475;SDS011;72099;43.176;76.872;2024-01-15T17:41:11;20.95;;;9.20;;
82475;SDS011;72099;43.176;76.872;2024-01-15T17:47:23;13.00;;;6.63;;
82475;SDS011;72099;43.176;76.872;2024-01-15T17:50:24;17.73;;;7.68;;
82475;SDS011;72099;43.176;76.872;2024-01-15T17:53:25;12.63;;;5.95;;
82475;SDS011;72099;43.176;76.872;2024-01-15T17:56:26;11.23;;;6.05;;
82475;SDS011;72099;43.176;76.872;2024-01-15T18:02:34;11.73;;;5.93;;
82475;SDS011;72099;43.176;76.872;2024-01-15T18:05:35;11.27;;;5.75;;
82475;SDS011;72099;43.176;76.872;2024-01-15T18:08:36;13.38;;;5.95;;
82475;SDS011;72099;43.176;76.872;2024-01-15T18:11:37;12.15;;;6.78;;
82475;SDS011;72099;43.176;76.872;2024-01-15T18:14:38;11.70;;;5.85;;
82475;SDS011;72099;43.176;76.872;2024-01-15T18:17:39;13.25;;;6.63;;
82475;SDS011;72099;43.176;76.872;2024-01-15T18:20:40;14.02;;;6.38;;
82475;SDS011;72099;43.176;76.872;2024-01-15T18:23:41;14.20;;;6.32;;
82475;SDS011;72099;43.176;76.872;2024-01-15T18:26:42;11.27;;;6.40;;
82475;SDS011;72099;43.176;76.872;2024-01-15T18:29:43;15.82;;;5.93;;
82475;SDS011;72099;43.176;76.872;2024-01-15T18:32:44;14.50;;;6.07;;
82475;SDS011;72099;43.176;76.872;2024-01-15T18:35:45;12.40;;;6.60;;
82475;SDS011;72099;43.176;76.872;2024-01-15T18:38:47;11.30;;;5.50;;
82475;SDS011;72099;43.176;76.872;2024-01-15T18:41:48;9.75;;;4.90;;
82475;SDS011;72099;43.176;76.872;2024-01-15T18:44:49;13.38;;;6.28;;
82475;SDS011;72099;43.176;76.872;2024-01-15T18:47:50;10.35;;;5.32;;
82475;SDS011;72099;43.176;76.872;2024-01-15T18:50:51;17.05;;;6.22;;